sensor_id;sensor_type;location;lat;lon;timestamp;P1;durP1;ratioP1;P2;durP2;ratioP2
12052;SDS011;6087;48.982;12.064;2023-07-13T00:02:14;5.97;;;3.30;;
12052;SDS011;6087;48.982;12.064;2023-07-13T00:04:44;4.75;;;3.28;;
12052;SDS011;6087;48.982;12.064;2023-07-13T00:07:11;3.90;;;3.53;;
12052;SDS011;6087;48.982;12.064;2023-07-13T00:09:40;3.67;;;3.25;;
12052;SDS011;6087;48.982;12.064;2023-07-13T00:12:21;4.00;;;3.17;;
12052;SDS011;6087;48.982;12.064;2023-07-13T00:14:50;5.18;;;3.42;;
12052;SDS011;6087;48.982;12.064;2023-07-13T00:17:17;4.00;;;3.60;;
12052;SDS011;6087;48.982;12.064;2023-07-13T00:19:44;3.53;;;3.22;;
12052;SDS011;6087;48.982;12.064;2023-07-13T00:22:11;3.50;;;3.20;;
12052;SDS011;6087;48.982;12.064;2023-07-13T00:24:38;3.40;;;3.10;;
12052;SDS011;6087;48.982;12.064;2023-07-13T00:27:08;3.13;;;2.83;;
12052;SDS011;6087;48.982;12.064;2023-07-13T00:29:35;3.10;;;2.90;;
12052;SDS011;6087;48.982;12.064;2023-07-13T00:32:02;3.83;;;2.88;;
12052;SDS011;6087;48.982;12.064;2023-07-13T00:34:29;4.72;;;3.80;;
12052;SDS011;6087;48.982;12.064;2023-07-13T00:36:59;3.78;;;3.13;;
12052;SDS011;6087;48.982;12.064;2023-07-13T00:39:27;4.70;;;3.13;;
12052;SDS011;6087;48.982;12.064;2023-07-13T00:41:54;3.70;;;3.15;;
12052;SDS011;6087;48.982;12.064;2023-07-13T00:44:29;3.45;;;3.15;;
12052;SDS011;6087;48.982;12.064;2023-07-13T00:46:59;5.72;;;3.88;;
12052;SDS011;6087;48.982;12.064;2023-07-13T00:49:27;7.72;;;3.60;;
12052;SDS011;6087;48.982;12.064;2023-07-13T00:51:57;5.78;;;3.38;;
12052;SDS011;6087;48.982;12.064;2023-07-13T00:54:28;10.23;;;3.45;;
12052;SDS011;6087;48.982;12.064;2023-07-13T00:57:03;4.20;;;3.53;;
12052;SDS011;6087;48.982;12.064;2023-07-13T00:59:34;5.28;;;3.75;;
12052;SDS011;6087;48.982;12.064;2023-07-13T01:02:02;4.82;;;3.53;;
12052;SDS011;6087;48.982;12.064;2023-07-13T01:04:30;7.47;;;3.75;;
12052;SDS011;6087;48.982;12.064;2023-07-13T01:06:57;4.60;;;4.25;;
12052;SDS011;6087;48.982;12.064;2023-07-13T01:09:25;8.32;;;5.05;;
12052;SDS011;6087;48.982;12.064;2023-07-13T01:11:53;6.88;;;4.63;;
12052;SDS011;6087;48.982;12.064;2023-07-13T01:14:20;5.55;;;4.38;;
12052;SDS011;6087;48.982;12.064;2023-07-13T01:16:51;6.70;;;5.72;;
12052;SDS011;6087;48.982;12.064;2023-07-13T01:19:24;5.95;;;5.40;;
12052;SDS011;6087;48.982;12.064;2023-07-13T01:22:02;8.00;;;5.93;;
12052;SDS011;6087;48.982;12.064;2023-07-13T01:24:33;7.00;;;6.30;;
12052;SDS011;6087;48.982;12.064;2023-07-13T01:27:01;6.95;;;5.97;;
12052;SDS011;6087;48.982;12.064;2023-07-13T01:29:32;7.28;;;6.40;;
12052;SDS011;6087;48.982;12.064;2023-07-13T01:32:07;9.27;;;6.22;;
12052;SDS011;6087;48.982;12.064;2023-07-13T01:34:34;7.43;;;6.00;;
12052;SDS011;6087;48.982;12.064;2023-07-13T01:37:03;11.00;;;6.18;;
12052;SDS011;6087;48.982;12.064;2023-07-13T01:39:31;8.10;;;5.60;;
12052;SDS011;6087;48.982;12.064;2023-07-13T01:41:58;5.43;;;4.88;;
12052;SDS011;6087;48.982;12.064;2023-07-13T01:44:25;7.40;;;5.25;;
12052;SDS011;6087;48.982;12.064;2023-07-13T01:46:52;6.03;;;5.18;;
12052;SDS011;6087;48.982;12.064;2023-07-13T01:49:19;6.15;;;5.47;;
12052;SDS011;6087;48.982;12.064;2023-07-13T01:51:45;8.40;;;5.60;;
12052;SDS011;6087;48.982;12.064;2023-07-13T01:54:14;7.20;;;5.40;;
12052;SDS011;6087;48.982;12.064;2023-07-13T01:56:41;6.28;;;4.72;;
12052;SDS011;6087;48.982;12.064;2023-07-13T01:59:07;5.22;;;4.55;;
12052;SDS011;6087;48.982;12.064;2023-07-13T02:01:34;5.90;;;4.90;;
12052;SDS011;6087;48.982;12.064;2023-07-13T02:04:01;4.82;;;4.43;;
12052;SDS011;6087;48.982;12.064;2023-07-13T02:06:28;5.13;;;4.53;;
12052;SDS011;6087;48.982;12.064;2023-07-13T02:08:55;6.85;;;4.35;;
12052;SDS011;6087;48.982;12.064;2023-07-13T02:11:25;5.25;;;4.65;;
12052;SDS011;6087;48.982;12.064;2023-07-13T02:14:00;5.05;;;4.60;;
12052;SDS011;6087;48.982;12.064;2023-07-13T02:16:28;5.60;;;4.40;;
12052;SDS011;6087;48.982;12.064;2023-07-13T02:18:55;6.68;;;4.55;;
12052;SDS011;6087;48.982;12.064;2023-07-13T02:21:22;5.05;;;4.55;;
12052;SDS011;6087;48.982;12.064;2023-07-13T02:23:49;7.93;;;4.68;;
12052;SDS011;6087;48.982;12.064;2023-07-13T02:26:17;7.72;;;4.38;;
12052;SDS011;6087;48.982;12.064;2023-07-13T02:28:46;7.72;;;4.43;;
12052;SDS011;6087;48.982;12.064;2023-07-13T02:31:14;6.20;;;4.57;;
12052;SDS011;6087;48.982;12.064;2023-07-13T02:33:42;5.43;;;4.22;;
12052;SDS011;6087;48.982;12.064;2023-07-13T02:36:09;4.70;;;4.15;;
12052;SDS011;6087;48.982;12.064;2023-07-13T02:38:37;4.85;;;3.95;;
12052;SDS011;6087;48.982;12.064;2023-07-13T02:41:04;5.80;;;4.07;;
12052;SDS011;6087;48.982;12.064;2023-07-13T02:43:33;8.77;;;4.18;;
12052;SDS011;6087;48.982;12.064;2023-07-13T02:46:02;5.97;;;4.60;;
12052;SDS011;6087;48.982;12.064;2023-07-13T02:48:32;4.57;;;4.15;;
12052;SDS011;6087;48.982;12.064;2023-07-13T02:50:59;5.20;;;3.88;;
12052;SDS011;6087;48.982;12.064;2023-07-13T02:53:25;5.53;;;3.92;;
12052;SDS011;6087;48.982;12.064;2023-07-13T02:55:52;4.78;;;3.97;;
12052;SDS011;6087;48.982;12.064;2023-07-13T02:58:19;5.22;;;3.88;;
12052;SDS011;6087;48.982;12.064;2023-07-13T03:00:46;4.88;;;4.35;;
12052;SDS011;6087;48.982;12.064;2023-07-13T03:03:19;4.80;;;4.25;;
12052;SDS011;6087;48.982;12.064;2023-07-13T03:05:46;8.82;;;4.35;;
12052;SDS011;6087;48.982;12.064;2023-07-13T03:08:15;4.38;;;3.95;;
12052;SDS011;6087;48.982;12.064;2023-07-13T03:10:43;5.13;;;4.05;;
12052;SDS011;6087;48.982;12.064;2023-07-13T03:13:10;3.85;;;3.50;;
12052;SDS011;6087;48.982;12.064;2023-07-13T03:15:36;8.18;;;4.22;;
12052;SDS011;6087;48.982;12.064;2023-07-13T03:18:09;5.88;;;4.38;;
12052;SDS011;6087;48.982;12.064;2023-07-13T03:20:37;7.03;;;4.22;;
12052;SDS011;6087;48.982;12.064;2023-07-13T03:23:04;4.95;;;4.50;;
12052;SDS011;6087;48.982;12.064;2023-07-13T03:25:31;6.75;;;4.80;;
12052;SDS011;6087;48.982;12.064;2023-07-13T03:27:58;9.43;;;5.03;;
12052;SDS011;6087;48.982;12.064;2023-07-13T03:30:25;10.57;;;4.53;;
12052;SDS011;6087;48.982;12.064;2023-07-13T03:32:51;8.20;;;4.82;;
12052;SDS011;6087;48.982;12.064;2023-07-13T03:35:18;12.40;;;5.68;;
12052;SDS011;6087;48.982;12.064;2023-07-13T03:37:49;13.98;;;6.13;;
12052;SDS011;6087;48.982;12.064;2023-07-13T03:40:19;9.57;;;6.07;;
12052;SDS011;6087;48.982;12.064;2023-07-13T03:42:46;8.15;;;5.47;;
12052;SDS011;6087;48.982;12.064;2023-07-13T03:45:13;9.82;;;5.63;;
12052;SDS011;6087;48.982;12.064;2023-07-13T03:47:39;12.70;;;6.35;;
12052;SDS011;6087;48.982;12.064;2023-07-13T03:50:07;8.27;;;4.68;;
12052;SDS011;6087;48.982;12.064;2023-07-13T03:52:34;6.93;;;5.25;;
12052;SDS011;6087;48.982;12.064;2023-07-13T03:55:02;7.97;;;5.43;;
12052;SDS011;6087;48.982;12.064;2023-07-13T03:57:30;10.82;;;5.63;;
12052;SDS011;6087;48.982;12.064;2023-07-13T03:59:57;9.82;;;4.90;;
12052;SDS011;6087;48.982;12.064;2023-07-13T04:02:24;9.65;;;5.93;;
12052;SDS011;6087;48.982;12.064;2023-07-13T04:04:51;8.07;;;4.90;;
12052;SDS011;6087;48.982;12.064;2023-07-13T04:07:18;10.10;;;6.50;;
12052;SDS011;6087;48.982;12.064;2023-07-13T04:09:45;10.52;;;5.97;;
12052;SDS011;6087;48.982;12.064;2023-07-13T04:12:13;7.82;;;7.05;;
12052;SDS011;6087;48.982;12.064;2023-07-13T04:14:40;10.50;;;6.15;;
12052;SDS011;6087;48.982;12.064;2023-07-13T04:17:07;8.85;;;6.18;;
12052;SDS011;6087;48.982;12.064;2023-07-13T04:19:34;8.82;;;6.38;;
12052;SDS011;6087;48.982;12.064;2023-07-13T04:22:13;9.98;;;6.07;;
12052;SDS011;6087;48.982;12.064;2023-07-13T04:24:39;8.88;;;6.68;;
12052;SDS011;6087;48.982;12.064;2023-07-13T04:27:06;8.27;;;6.78;;
12052;SDS011;6087;48.982;12.064;2023-07-13T04:29:38;7.80;;;7.05;;
12052;SDS011;6087;48.982;12.064;2023-07-13T04:32:05;7.10;;;6.35;;
12052;SDS011;6087;48.982;12.064;2023-07-13T04:34:32;10.23;;;6.93;;
12052;SDS011;6087;48.982;12.064;2023-07-13T04:36:59;8.48;;;7.05;;
12052;SDS011;6087;48.982;12.064;2023-07-13T04:39:26;8.20;;;6.90;;
12052;SDS011;6087;48.982;12.064;2023-07-13T04:41:53;8.65;;;6.90;;
12052;SDS011;6087;48.982;12.064;2023-07-13T04:44:21;6.78;;;6.07;;
12052;SDS011;6087;48.982;12.064;2023-07-13T04:46:49;9.02;;;5.57;;
12052;SDS011;6087;48.982;12.064;2023-07-13T04:49:19;9.15;;;6.20;;
12052;SDS011;6087;48.982;12.064;2023-07-13T04:51:51;11.00;;;5.30;;
12052;SDS011;6087;48.982;12.064;2023-07-13T04:54:22;7.10;;;5.00;;
12052;SDS011;6087;48.982;12.064;2023-07-13T04:56:49;9.02;;;5.10;;
12052;SDS011;6087;48.982;12.064;2023-07-13T04:59:16;7.43;;;4.72;;
12052;SDS011;6087;48.982;12.064;2023-07-13T05:01:43;5.82;;;3.80;;
12052;SDS011;6087;48.982;12.064;2023-07-13T05:04:11;8.52;;;4.40;;
12052;SDS011;6087;48.982;12.064;2023-07-13T05:06:44;5.80;;;3.83;;
12052;SDS011;6087;48.982;12.064;2023-07-13T05:09:13;4.88;;;3.58;;
12052;SDS011;6087;48.982;12.064;2023-07-13T05:11:40;7.50;;;3.88;;
12052;SDS011;6087;48.982;12.064;2023-07-13T05:14:07;7.10;;;4.30;;
12052;SDS011;6087;48.982;12.064;2023-07-13T05:16:34;9.48;;;3.88;;
12052;SDS011;6087;48.982;12.064;2023-07-13T05:19:19;8.73;;;3.90;;
12052;SDS011;6087;48.982;12.064;2023-07-13T05:21:45;10.95;;;3.92;;
12052;SDS011;6087;48.982;12.064;2023-07-13T05:24:12;5.93;;;3.47;;
12052;SDS011;6087;48.982;12.064;2023-07-13T05:26:39;7.63;;;3.58;;
12052;SDS011;6087;48.982;12.064;2023-07-13T05:29:06;6.30;;;3.50;;
12052;SDS011;6087;48.982;12.064;2023-07-13T05:31:33;6.57;;;2.70;;
12052;SDS011;6087;48.982;12.064;2023-07-13T05:34:00;3.58;;;2.30;;
12052;SDS011;6087;48.982;12.064;2023-07-13T05:36:28;7.10;;;2.72;;
12052;SDS011;6087;48.982;12.064;2023-07-13T05:38:55;5.18;;;2.30;;
12052;SDS011;6087;48.982;12.064;2023-07-13T05:41:21;3.35;;;2.65;;
12052;SDS011;6087;48.982;12.064;2023-07-13T05:43:48;2.92;;;2.58;;
12052;SDS011;6087;48.982;12.064;2023-07-13T05:46:15;4.72;;;2.65;;
12052;SDS011;6087;48.982;12.064;2023-07-13T05:48:42;3.65;;;2.50;;
12052;SDS011;6087;48.982;12.064;2023-07-13T05:51:09;6.50;;;2.38;;
12052;SDS011;6087;48.982;12.064;2023-07-13T05:53:40;2.92;;;2.10;;
12052;SDS011;6087;48.982;12.064;2023-07-13T05:56:07;3.80;;;2.13;;
12052;SDS011;6087;48.982;12.064;2023-07-13T05:58:34;2.75;;;1.88;;
12052;SDS011;6087;48.982;12.064;2023-07-13T06:01:02;3.33;;;2.33;;
12052;SDS011;6087;48.982;12.064;2023-07-13T06:03:30;2.20;;;2.00;;
12052;SDS011;6087;48.982;12.064;2023-07-13T06:05:57;2.15;;;1.70;;
12052;SDS011;6087;48.982;12.064;2023-07-13T06:08:25;6.15;;;2.08;;
12052;SDS011;6087;48.982;12.064;2023-07-13T06:10:53;3.00;;;1.70;;
12052;SDS011;6087;48.982;12.064;2023-07-13T06:13:23;2.35;;;1.85;;
12052;SDS011;6087;48.982;12.064;2023-07-13T06:15:50;5.18;;;2.20;;
12052;SDS011;6087;48.982;12.064;2023-07-13T06:18:17;2.10;;;2.00;;
12052;SDS011;6087;48.982;12.064;2023-07-13T06:20:44;1.80;;;1.70;;
12052;SDS011;6087;48.982;12.064;2023-07-13T06:23:11;4.32;;;2.03;;
12052;SDS011;6087;48.982;12.064;2023-07-13T06:25:37;1.80;;;1.70;;
12052;SDS011;6087;48.982;12.064;2023-07-13T06:28:07;2.03;;;1.80;;
12052;SDS011;6087;48.982;12.064;2023-07-13T06:30:34;2.80;;;1.35;;
12052;SDS011;6087;48.982;12.064;2023-07-13T06:33:01;1.65;;;1.40;;
12052;SDS011;6087;48.982;12.064;2023-07-13T06:35:27;3.15;;;1.60;;
12052;SDS011;6087;48.982;12.064;2023-07-13T06:37:54;2.28;;;1.73;;
12052;SDS011;6087;48.982;12.064;2023-07-13T06:40:21;4.57;;;2.10;;
12052;SDS011;6087;48.982;12.064;2023-07-13T06:42:48;2.30;;;1.50;;
12052;SDS011;6087;48.982;12.064;2023-07-13T06:45:16;3.28;;;1.65;;
12052;SDS011;6087;48.982;12.064;2023-07-13T06:47:43;5.63;;;1.80;;
12052;SDS011;6087;48.982;12.064;2023-07-13T06:50:10;6.10;;;1.83;;
12052;SDS011;6087;48.982;12.064;2023-07-13T06:52:37;3.65;;;1.92;;
12052;SDS011;6087;48.982;12.064;2023-07-13T06:55:04;2.58;;;2.25;;
12052;SDS011;6087;48.982;12.064;2023-07-13T06:57:32;1.80;;;1.50;;
12052;SDS011;6087;48.982;12.064;2023-07-13T06:59:58;2.88;;;1.83;;
12052;SDS011;6087;48.982;12.064;2023-07-13T07:02:27;3.97;;;1.75;;
12052;SDS011;6087;48.982;12.064;2023-07-13T07:04:54;2.65;;;2.00;;
12052;SDS011;6087;48.982;12.064;2023-07-13T07:07:23;2.72;;;1.85;;
12052;SDS011;6087;48.982;12.064;2023-07-13T07:09:50;3.20;;;1.77;;
12052;SDS011;6087;48.982;12.064;2023-07-13T07:12:17;7.13;;;2.10;;
12052;SDS011;6087;48.982;12.064;2023-07-13T07:14:44;4.22;;;1.60;;
12052;SDS011;6087;48.982;12.064;2023-07-13T07:17:11;3.17;;;1.55;;
12052;SDS011;6087;48.982;12.064;2023-07-13T07:19:39;3.08;;;1.80;;
12052;SDS011;6087;48.982;12.064;2023-07-13T07:22:06;6.78;;;1.90;;
12052;SDS011;6087;48.982;12.064;2023-07-13T07:24:33;1.70;;;1.58;;
12052;SDS011;6087;48.982;12.064;2023-07-13T07:27:00;2.05;;;1.83;;
12052;SDS011;6087;48.982;12.064;2023-07-13T07:29:27;3.75;;;1.50;;
12052;SDS011;6087;48.982;12.064;2023-07-13T07:31:54;1.65;;;1.48;;
12052;SDS011;6087;48.982;12.064;2023-07-13T07:34:21;2.80;;;1.80;;
12052;SDS011;6087;48.982;12.064;2023-07-13T07:37:03;9.43;;;2.03;;
12052;SDS011;6087;48.982;12.064;2023-07-13T07:39:30;1.77;;;1.55;;
12052;SDS011;6087;48.982;12.064;2023-07-13T07:41:58;1.67;;;1.50;;
12052;SDS011;6087;48.982;12.064;2023-07-13T07:44:25;4.20;;;2.00;;
12052;SDS011;6087;48.982;12.064;2023-07-13T07:46:53;2.20;;;2.00;;
12052;SDS011;6087;48.982;12.064;2023-07-13T07:49:20;2.03;;;1.58;;
12052;SDS011;6087;48.982;12.064;2023-07-13T07:51:47;3.65;;;1.52;;
12052;SDS011;6087;48.982;12.064;2023-07-13T07:54:15;1.90;;;1.73;;
12052;SDS011;6087;48.982;12.064;2023-07-13T07:56:42;3.70;;;1.55;;
12052;SDS011;6087;48.982;12.064;2023-07-13T07:59:09;2.20;;;1.38;;
12052;SDS011;6087;48.982;12.064;2023-07-13T08:01:36;1.70;;;1.50;;
12052;SDS011;6087;48.982;12.064;2023-07-13T08:04:03;2.60;;;1.50;;
12052;SDS011;6087;48.982;12.064;2023-07-13T08:06:31;2.60;;;1.30;;
12052;SDS011;6087;48.982;12.064;2023-07-13T08:08:58;4.70;;;1.63;;
12052;SDS011;6087;48.982;12.064;2023-07-13T08:11:27;2.88;;;1.77;;
12052;SDS011;6087;48.982;12.064;2023-07-13T08:13:54;2.75;;;1.20;;
12052;SDS011;6087;48.982;12.064;2023-07-13T08:16:21;2.13;;;1.58;;
12052;SDS011;6087;48.982;12.064;2023-07-13T08:18:48;4.50;;;1.80;;
12052;SDS011;6087;48.982;12.064;2023-07-13T08:21:15;1.63;;;1.42;;
12052;SDS011;6087;48.982;12.064;2023-07-13T08:23:44;3.63;;;1.48;;
12052;SDS011;6087;48.982;12.064;2023-07-13T08:26:11;5.20;;;1.10;;
12052;SDS011;6087;48.982;12.064;2023-07-13T08:28:40;3.67;;;1.60;;
12052;SDS011;6087;48.982;12.064;2023-07-13T08:31:07;2.80;;;1.35;;
12052;SDS011;6087;48.982;12.064;2023-07-13T08:33:38;1.50;;;1.33;;
12052;SDS011;6087;48.982;12.064;2023-07-13T08:36:06;2.15;;;1.30;;
12052;SDS011;6087;48.982;12.064;2023-07-13T08:38:33;4.53;;;1.40;;
12052;SDS011;6087;48.982;12.064;2023-07-13T08:41:03;1.20;;;1.10;;
12052;SDS011;6087;48.982;12.064;2023-07-13T08:43:37;2.72;;;1.52;;
12052;SDS011;6087;48.982;12.064;2023-07-13T08:46:08;5.35;;;1.55;;
12052;SDS011;6087;48.982;12.064;2023-07-13T08:48:39;3.72;;;1.48;;
12052;SDS011;6087;48.982;12.064;2023-07-13T08:51:23;2.47;;;1.27;;
12052;SDS011;6087;48.982;12.064;2023-07-13T08:53:55;4.25;;;1.33;;
12052;SDS011;6087;48.982;12.064;2023-07-13T08:56:28;1.42;;;1.20;;
12052;SDS011;6087;48.982;12.064;2023-07-13T08:58:57;3.20;;;1.13;;
12052;SDS011;6087;48.982;12.064;2023-07-13T09:01:30;1.95;;;1.27;;
12052;SDS011;6087;48.982;12.064;2023-07-13T09:04:04;1.50;;;1.23;;
12052;SDS011;6087;48.982;12.064;2023-07-13T09:06:35;5.13;;;1.55;;
12052;SDS011;6087;48.982;12.064;2023-07-13T09:09:14;4.22;;;1.52;;
12052;SDS011;6087;48.982;12.064;2023-07-13T09:11:49;4.53;;;1.60;;
12052;SDS011;6087;48.982;12.064;2023-07-13T09:14:28;2.35;;;1.45;;
12052;SDS011;6087;48.982;12.064;2023-07-13T09:17:17;2.72;;;1.20;;
12052;SDS011;6087;48.982;12.064;2023-07-13T09:19:46;4.75;;;1.60;;
12052;SDS011;6087;48.982;12.064;2023-07-13T09:22:22;1.20;;;1.05;;
12052;SDS011;6087;48.982;12.064;2023-07-13T09:24:54;2.80;;;1.73;;
12052;SDS011;6087;48.982;12.064;2023-07-13T09:27:27;4.47;;;1.50;;
12052;SDS011;6087;48.982;12.064;2023-07-13T09:30:00;2.63;;;1.48;;
12052;SDS011;6087;48.982;12.064;2023-07-13T09:32:40;1.65;;;1.30;;
12052;SDS011;6087;48.982;12.064;2023-07-13T09:35:09;3.75;;;1.67;;
12052;SDS011;6087;48.982;12.064;2023-07-13T09:37:37;1.60;;;1.48;;
12052;SDS011;6087;48.982;12.064;2023-07-13T09:40:08;2.67;;;1.48;;
12052;SDS011;6087;48.982;12.064;2023-07-13T09:42:42;3.97;;;1.13;;
12052;SDS011;6087;48.982;12.064;2023-07-13T09:45:09;2.70;;;0.90;;
12052;SDS011;6087;48.982;12.064;2023-07-13T09:47:38;3.05;;;1.30;;
12052;SDS011;6087;48.982;12.064;2023-07-13T09:50:09;1.45;;;1.13;;
12052;SDS011;6087;48.982;12.064;2023-07-13T09:52:41;1.58;;;1.02;;
12052;SDS011;6087;48.982;12.064;2023-07-13T09:55:22;2.88;;;1.10;;
12052;SDS011;6087;48.982;12.064;2023-07-13T09:57:51;1.98;;;1.17;;
12052;SDS011;6087;48.982;12.064;2023-07-13T10:00:20;2.83;;;1.23;;
12052;SDS011;6087;48.982;12.064;2023-07-13T10:02:57;2.05;;;1.10;;
12052;SDS011;6087;48.982;12.064;2023-07-13T10:05:25;3.58;;;1.33;;
12052;SDS011;6087;48.982;12.064;2023-07-13T10:07:53;3.85;;;1.23;;
12052;SDS011;6087;48.982;12.064;2023-07-13T10:10:22;2.45;;;1.10;;
12052;SDS011;6087;48.982;12.064;2023-07-13T10:12:50;2.42;;;1.08;;
12052;SDS011;6087;48.982;12.064;2023-07-13T10:15:18;3.58;;;1.13;;
12052;SDS011;6087;48.982;12.064;2023-07-13T10:17:47;4.53;;;0.90;;
12052;SDS011;6087;48.982;12.064;2023-07-13T10:20:16;2.00;;;1.00;;
12052;SDS011;6087;48.982;12.064;2023-07-13T10:22:46;2.70;;;1.20;;
12052;SDS011;6087;48.982;12.064;2023-07-13T10:25:18;2.75;;;1.40;;
12052;SDS011;6087;48.982;12.064;2023-07-13T10:27:47;1.05;;;1.05;;
12052;SDS011;6087;48.982;12.064;2023-07-13T10:30:19;1.23;;;1.10;;
12052;SDS011;6087;48.982;12.064;2023-07-13T10:32:50;4.00;;;1.10;;
12052;SDS011;6087;48.982;12.064;2023-07-13T10:35:20;2.17;;;1.10;;
12052;SDS011;6087;48.982;12.064;2023-07-13T10:37:50;1.58;;;1.08;;
12052;SDS011;6087;48.982;12.064;2023-07-13T10:40:22;4.78;;;1.13;;
12052;SDS011;6087;48.982;12.064;2023-07-13T10:42:54;2.33;;;1.23;;
12052;SDS011;6087;48.982;12.064;2023-07-13T10:45:25;4.00;;;1.35;;
12052;SDS011;6087;48.982;12.064;2023-07-13T10:47:55;3.75;;;1.13;;
12052;SDS011;6087;48.982;12.064;2023-07-13T10:50:24;1.92;;;0.98;;
12052;SDS011;6087;48.982;12.064;2023-07-13T10:52:56;2.05;;;0.82;;
12052;SDS011;6087;48.982;12.064;2023-07-13T10:55:33;1.30;;;1.00;;
12052;SDS011;6087;48.982;12.064;2023-07-13T10:58:02;1.33;;;1.00;;
12052;SDS011;6087;48.982;12.064;2023-07-13T11:00:42;2.25;;;1.45;;
12052;SDS011;6087;48.982;12.064;2023-07-13T11:03:15;1.65;;;1.08;;
12052;SDS011;6087;48.982;12.064;2023-07-13T11:05:48;1.10;;;1.00;;
12052;SDS011;6087;48.982;12.064;2023-07-13T11:08:19;4.05;;;1.02;;
12052;SDS011;6087;48.982;12.064;2023-07-13T11:10:52;1.52;;;1.00;;
12052;SDS011;6087;48.982;12.064;2023-07-13T11:13:36;2.80;;;1.20;;
12052;SDS011;6087;48.982;12.064;2023-07-13T11:16:32;2.15;;;1.00;;
12052;SDS011;6087;48.982;12.064;2023-07-13T11:19:24;2.13;;;1.15;;
12052;SDS011;6087;48.982;12.064;2023-07-13T11:22:13;2.25;;;1.00;;
12052;SDS011;6087;48.982;12.064;2023-07-13T11:27:49;2.28;;;0.85;;
12052;SDS011;6087;48.982;12.064;2023-07-13T11:30:21;2.58;;;1.13;;
12052;SDS011;6087;48.982;12.064;2023-07-13T11:33:07;1.70;;;0.90;;
12052;SDS011;6087;48.982;12.064;2023-07-13T11:35:44;2.58;;;1.38;;
12052;SDS011;6087;48.982;12.064;2023-07-13T11:38:30;2.15;;;1.48;;
12052;SDS011;6087;48.982;12.064;2023-07-13T11:41:01;1.13;;;1.00;;
12052;SDS011;6087;48.982;12.064;2023-07-13T11:43:38;2.08;;;0.82;;
12052;SDS011;6087;48.982;12.064;2023-07-13T11:46:14;1.60;;;0.82;;
12052;SDS011;6087;48.982;12.064;2023-07-13T11:48:42;4.18;;;1.08;;
12052;SDS011;6087;48.982;12.064;2023-07-13T11:51:16;1.10;;;0.60;;
12052;SDS011;6087;48.982;12.064;2023-07-13T11:53:50;2.67;;;1.20;;
12052;SDS011;6087;48.982;12.064;2023-07-13T11:56:18;3.05;;;1.17;;
12052;SDS011;6087;48.982;12.064;2023-07-13T11:58:48;1.80;;;1.13;;
12052;SDS011;6087;48.982;12.064;2023-07-13T12:01:17;2.03;;;1.00;;
12052;SDS011;6087;48.982;12.064;2023-07-13T12:03:47;1.10;;;1.00;;
12052;SDS011;6087;48.982;12.064;2023-07-13T12:06:23;1.80;;;1.00;;
12052;SDS011;6087;48.982;12.064;2023-07-13T12:08:57;0.98;;;0.88;;
12052;SDS011;6087;48.982;12.064;2023-07-13T12:11:26;2.58;;;1.02;;
12052;SDS011;6087;48.982;12.064;2023-07-13T12:13:53;1.98;;;1.10;;
12052;SDS011;6087;48.982;12.064;2023-07-13T12:16:23;3.22;;;1.40;;
12052;SDS011;6087;48.982;12.064;2023-07-13T12:18:58;2.00;;;1.20;;
12052;SDS011;6087;48.982;12.064;2023-07-13T12:21:28;1.35;;;1.20;;
12052;SDS011;6087;48.982;12.064;2023-07-13T12:23:59;2.45;;;0.90;;
12052;SDS011;6087;48.982;12.064;2023-07-13T12:26:30;1.00;;;0.90;;
12052;SDS011;6087;48.982;12.064;2023-07-13T12:28:58;2.22;;;1.27;;
12052;SDS011;6087;48.982;12.064;2023-07-13T12:31:30;1.02;;;0.98;;
12052;SDS011;6087;48.982;12.064;2023-07-13T12:34:01;2.17;;;1.10;;
12052;SDS011;6087;48.982;12.064;2023-07-13T12:36:30;1.65;;;1.13;;
12052;SDS011;6087;48.982;12.064;2023-07-13T12:39:02;1.52;;;0.93;;
12052;SDS011;6087;48.982;12.064;2023-07-13T12:41:37;2.50;;;0.98;;
12052;SDS011;6087;48.982;12.064;2023-07-13T12:44:06;2.00;;;0.93;;
12052;SDS011;6087;48.982;12.064;2023-07-13T12:46:37;3.05;;;1.10;;
12052;SDS011;6087;48.982;12.064;2023-07-13T12:49:06;0.93;;;0.85;;
12052;SDS011;6087;48.982;12.064;2023-07-13T12:51:33;2.28;;;0.90;;
12052;SDS011;6087;48.982;12.064;2023-07-13T12:54:11;1.60;;;1.13;;
12052;SDS011;6087;48.982;12.064;2023-07-13T12:56:41;2.92;;;1.10;;
12052;SDS011;6087;48.982;12.064;2023-07-13T12:59:11;2.03;;;0.95;;
12052;SDS011;6087;48.982;12.064;2023-07-13T13:01:47;1.02;;;0.90;;
12052;SDS011;6087;48.982;12.064;2023-07-13T13:04:21;2.13;;;0.95;;
12052;SDS011;6087;48.982;12.064;2023-07-13T13:06:48;2.53;;;1.00;;
12052;SDS011;6087;48.982;12.064;2023-07-13T13:09:17;2.13;;;1.13;;
12052;SDS011;6087;48.982;12.064;2023-07-13T13:11:45;1.73;;;1.20;;
12052;SDS011;6087;48.982;12.064;2023-07-13T13:14:12;1.48;;;1.00;;
12052;SDS011;6087;48.982;12.064;2023-07-13T13:16:43;3.83;;;1.10;;
12052;SDS011;6087;48.982;12.064;2023-07-13T13:19:14;5.07;;;1.00;;
12052;SDS011;6087;48.982;12.064;2023-07-13T13:21:44;1.70;;;1.13;;
12052;SDS011;6087;48.982;12.064;2023-07-13T13:24:12;3.05;;;1.20;;
12052;SDS011;6087;48.982;12.064;2023-07-13T13:26:41;2.63;;;0.82;;
12052;SDS011;6087;48.982;12.064;2023-07-13T13:29:17;2.42;;;1.20;;
12052;SDS011;6087;48.982;12.064;2023-07-13T13:31:46;1.67;;;1.30;;
12052;SDS011;6087;48.982;12.064;2023-07-13T13:34:14;2.13;;;1.15;;
12052;SDS011;6087;48.982;12.064;2023-07-13T13:36:43;1.67;;;0.90;;
12052;SDS011;6087;48.982;12.064;2023-07-13T13:39:16;1.58;;;0.90;;
12052;SDS011;6087;48.982;12.064;2023-07-13T13:41:49;3.22;;;1.00;;
12052;SDS011;6087;48.982;12.064;2023-07-13T13:44:17;3.40;;;1.13;;
12052;SDS011;6087;48.982;12.064;2023-07-13T13:46:45;1.05;;;0.70;;
12052;SDS011;6087;48.982;12.064;2023-07-13T13:49:15;1.25;;;1.00;;
12052;SDS011;6087;48.982;12.064;2023-07-13T13:51:44;1.10;;;1.00;;
12052;SDS011;6087;48.982;12.064;2023-07-13T13:54:12;1.77;;;1.00;;
12052;SDS011;6087;48.982;12.064;2023-07-13T13:56:41;1.30;;;1.10;;
12052;SDS011;6087;48.982;12.064;2023-07-13T13:59:10;2.70;;;0.88;;
12052;SDS011;6087;48.982;12.064;2023-07-13T14:01:38;2.75;;;0.85;;
12052;SDS011;6087;48.982;12.064;2023-07-13T14:04:05;3.15;;;0.93;;
12052;SDS011;6087;48.982;12.064;2023-07-13T14:06:33;2.35;;;0.98;;
12052;SDS011;6087;48.982;12.064;2023-07-13T14:09:00;1.75;;;1.10;;
12052;SDS011;6087;48.982;12.064;2023-07-13T14:11:29;2.20;;;1.00;;
12052;SDS011;6087;48.982;12.064;2023-07-13T14:13:58;2.25;;;0.90;;
12052;SDS011;6087;48.982;12.064;2023-07-13T14:16:30;3.55;;;1.00;;
12052;SDS011;6087;48.982;12.064;2023-07-13T14:18:59;1.20;;;0.95;;
12052;SDS011;6087;48.982;12.064;2023-07-13T14:21:27;2.25;;;1.30;;
12052;SDS011;6087;48.982;12.064;2023-07-13T14:23:55;1.00;;;0.95;;
12052;SDS011;6087;48.982;12.064;2023-07-13T14:26:22;1.25;;;1.10;;
12052;SDS011;6087;48.982;12.064;2023-07-13T14:28:51;1.48;;;1.05;;
12052;SDS011;6087;48.982;12.064;2023-07-13T14:31:20;2.00;;;1.00;;
12052;SDS011;6087;48.982;12.064;2023-07-13T14:33:49;2.60;;;0.95;;
12052;SDS011;6087;48.982;12.064;2023-07-13T14:36:21;1.38;;;0.93;;
12052;SDS011;6087;48.982;12.064;2023-07-13T14:38:54;3.03;;;1.00;;
12052;SDS011;6087;48.982;12.064;2023-07-13T14:41:22;2.55;;;0.90;;
12052;SDS011;6087;48.982;12.064;2023-07-13T14:43:49;1.27;;;0.80;;
12052;SDS011;6087;48.982;12.064;2023-07-13T14:46:18;0.93;;;0.82;;
12052;SDS011;6087;48.982;12.064;2023-07-13T14:48:54;1.60;;;1.13;;
12052;SDS011;6087;48.982;12.064;2023-07-13T14:51:27;2.75;;;1.00;;
12052;SDS011;6087;48.982;12.064;2023-07-13T14:53:54;1.27;;;1.00;;
12052;SDS011;6087;48.982;12.064;2023-07-13T14:56:21;1.13;;;0.80;;
12052;SDS011;6087;48.982;12.064;2023-07-13T14:58:48;1.20;;;0.80;;
12052;SDS011;6087;48.982;12.064;2023-07-13T15:01:15;0.90;;;0.82;;
12052;SDS011;6087;48.982;12.064;2023-07-13T15:03:43;3.75;;;1.17;;
12052;SDS011;6087;48.982;12.064;2023-07-13T15:06:15;1.38;;;1.02;;